Time;durP1;ratioP1;P1;durP2;ratioP2;P2;SDS_P1;SDS_P2;PMS_P1;PMS_P2;Temp;Humidity;BMP_temperature;BMP_pressure;BME280_temperature;BME280_humidity;BME280_pressure;Samples;Min_cycle;Max_cycle;Signal;HPM_P1;HPM_P2
2020/12/14 00:01:39;;;;;;;6.13;4.70;;;;;;;4.48;100.00;98046.73;3637464;80;43349;-20
2020/12/14 00:06:51;;;;;;;6.13;5.07;;;;;;;4.43;100.00;98053.44;3634547;80;43534;-20
2020/12/14 00:11:57;;;;;;;6.37;5.27;;;;;;;4.35;100.00;98049.26;3763956;77;44008;-20
2020/12/14 00:17:03;;;;;;;6.43;5.20;;;;;;;4.19;100.00;98057.22;3757720;77;44233;-20
2020/12/14 00:22:09;;;;;;;6.17;4.87;;;;;;;4.09;100.00;98068.30;3756588;78;43513;-20
2020/12/14 00:27:15;;;;;;;6.53;4.93;;;;;;;3.99;100.00;98075.74;3752756;78;43384;-20
2020/12/14 00:32:23;;;;;;;6.33;5.07;;;;;;;3.96;100.00;98074.66;3760660;78;43999;-20
2020/12/14 00:37:29;;;;;;;6.60;4.90;;;;;;;3.94;100.00;98089.92;3771941;78;44513;-20
2020/12/14 00:42:34;;;;;;;5.73;4.77;;;;;;;3.96;100.00;98099.15;3748578;78;44021;-20
2020/12/14 00:47:40;;;;;;;6.93;5.30;;;;;;;3.96;100.00;98079.98;3772444;77;44009;-20
2020/12/14 00:52:46;;;;;;;6.87;5.77;;;;;;;3.90;100.00;98076.98;3743355;78;43360;-20
2020/12/14 00:57:51;;;;;;;5.87;4.90;;;;;;;3.82;100.00;98078.98;3748361;78;44045;-20
2020/12/14 01:02:57;;;;;;;6.17;4.67;;;;;;;3.76;100.00;98079.00;3774809;78;44091;-20
2020/12/14 01:08:03;;;;;;;7.07;5.10;;;;;;;3.67;100.00;98070.41;3760227;78;44457;-20
2020/12/14 01:13:08;;;;;;;6.87;4.90;;;;;;;3.57;100.00;98057.49;3752451;78;43924;-20
2020/12/14 01:18:15;;;;;;;6.50;4.97;;;;;;;3.44;100.00;98059.83;3744753;78;43738;-20
2020/12/14 01:23:22;;;;;;;6.00;4.90;;;;;;;3.40;100.00;98065.06;3737657;77;43272;-20
2020/12/14 01:28:27;;;;;;;6.73;5.20;;;;;;;3.43;100.00;98062.12;3753683;78;43417;-20
2020/12/14 01:33:33;;;;;;;6.90;5.40;;;;;;;3.51;100.00;98053.05;3725093;78;43385;-20
2020/12/14 01:38:39;;;;;;;7.53;5.73;;;;;;;3.58;100.00;98064.52;3753053;78;43364;-20
2020/12/14 01:43:45;;;;;;;7.07;5.40;;;;;;;3.76;100.00;98070.15;3750004;78;43304;-20
2020/12/14 01:48:51;;;;;;;6.53;5.27;;;;;;;3.80;100.00;98070.27;3749172;78;44946;-20
2020/12/14 01:53:58;;;;;;;7.70;5.67;;;;;;;3.78;100.00;98070.38;3756343;77;43437;-20
2020/12/14 01:59:04;;;;;;;6.23;5.17;;;;;;;3.80;100.00;98078.26;3746815;78;44017;-20
2020/12/14 02:04:10;;;;;;;8.53;5.93;;;;;;;3.90;100.00;98079.66;3744630;78;44050;-20
2020/12/14 02:09:15;;;;;;;6.87;5.23;;;;;;;3.83;100.00;98069.52;3762650;78;43397;-20
2020/12/14 02:14:21;;;;;;;8.57;6.10;;;;;;;3.77;100.00;98054.52;3773855;78;44096;-20
2020/12/14 02:19:27;;;;;;;8.47;5.80;;;;;;;3.67;100.00;98065.95;3760682;78;44181;-20
2020/12/14 02:24:33;;;;;;;6.77;5.87;;;;;;;3.79;100.00;98052.08;3759831;78;43314;-20
2020/12/14 02:29:39;;;;;;;8.13;6.40;;;;;;;3.79;100.00;98056.08;3779105;77;44127;-20
2020/12/14 02:34:45;;;;;;;7.73;5.97;;;;;;;3.77;100.00;98051.86;3768165;78;44518;-20
2020/12/14 02:39:52;;;;;;;8.33;6.40;;;;;;;3.78;100.00;98033.06;3748786;78;44097;-20
2020/12/14 02:44:58;;;;;;;8.53;6.80;;;;;;;3.65;100.00;98038.58;3781301;78;43159;-20
2020/12/14 02:50:04;;;;;;;8.47;6.13;;;;;;;3.60;100.00;98035.44;3774154;78;43708;-20
2020/12/14 02:55:10;;;;;;;9.03;6.90;;;;;;;3.61;100.00;98026.48;3783740;78;43743;-20
2020/12/14 03:00:16;;;;;;;10.10;7.00;;;;;;;3.62;100.00;98025.51;3742077;77;44082;-20
2020/12/14 03:05:22;;;;;;;8.97;6.27;;;;;;;3.59;100.00;98021.76;3782917;77;44007;-20
2020/12/14 03:10:27;;;;;;;7.57;5.27;;;;;;;3.53;100.00;98007.13;3757166;78;43777;-20
2020/12/14 03:15:33;;;;;;;9.50;6.60;;;;;;;3.41;100.00;97998.83;3759545;78;44034;-20
2020/12/14 03:20:39;;;;;;;9.23;6.40;;;;;;;3.31;100.00;97987.23;3768138;78;44021;-20
2020/12/14 03:25:45;;;;;;;10.87;6.93;;;;;;;3.32;100.00;97983.14;3786708;78;44037;-19
2020/12/14 03:30:50;;;;;;;13.50;7.03;;;;;;;3.33;100.00;97985.30;3752109;78;42774;-20
2020/12/14 03:35:59;;;;;;;12.17;7.23;;;;;;;3.41;100.00;97995.33;3779358;77;43597;-20
2020/12/14 03:41:06;;;;;;;12.30;7.33;;;;;;;3.51;100.00;97985.13;3761209;78;43680;-20
2020/12/14 03:46:19;;;;;;;11.37;6.67;;;;;;;3.62;100.00;97982.89;3755585;78;44054;-20
2020/12/14 03:51:26;;;;;;;11.13;6.77;;;;;;;3.73;100.00;97979.81;3772606;78;43354;-20
2020/12/14 03:56:32;;;;;;;10.97;6.83;;;;;;;3.77;100.00;97978.09;3745081;78;43267;-20
2020/12/14 04:01:37;;;;;;;11.40;7.20;;;;;;;3.85;100.00;97987.63;3775273;78;44041;-20
2020/12/14 04:06:44;;;;;;;10.27;6.87;;;;;;;3.90;100.00;97994.38;3754038;77;44012;-20
2020/12/14 04:11:49;;;;;;;10.90;7.13;;;;;;;3.92;100.00;97995.09;3744402;77;44037;-20
2020/12/14 04:16:55;;;;;;;10.50;6.53;;;;;;;3.97;100.00;97988.40;3749990;78;44046;-20
2020/12/14 04:22:07;;;;;;;9.13;6.20;;;;;;;3.92;100.00;97981.30;3748449;78;44045;-20
2020/12/14 04:27:12;;;;;;;10.03;6.60;;;;;;;3.85;100.00;97969.45;3745323;78;44136;-25
2020/12/14 04:32:19;;;;;;;11.07;6.93;;;;;;;3.87;100.00;97976.83;3753236;78;43685;-25
2020/12/14 04:37:26;;;;;;;11.47;6.83;;;;;;;3.93;100.00;97990.13;3759155;78;44550;-25
2020/12/14 04:42:33;;;;;;;11.70;7.20;;;;;;;3.91;100.00;97984.08;3752484;78;43173;-25
2020/12/14 04:47:41;;;;;;;10.27;6.90;;;;;;;3.96;100.00;97981.37;3737266;77;43381;-25
2020/12/14 04:52:49;;;;;;;11.07;7.30;;;;;;;3.89;100.00;97985.55;3750557;78;42823;-25
2020/12/14 04:57:56;;;;;;;11.67;6.93;;;;;;;3.91;100.00;97990.27;3753563;78;44046;-25
2020/12/14 05:03:01;;;;;;;10.90;7.10;;;;;;;3.91;100.00;97974.75;3761195;78;43058;-25
2020/12/14 05:08:08;;;;;;;10.63;6.93;;;;;;;3.90;100.00;97972.58;3764247;78;44422;-25
2020/12/14 05:13:16;;;;;;;13.03;7.67;;;;;;;3.91;100.00;97972.95;3768122;78;44073;-25
2020/12/14 05:18:23;;;;;;;10.33;6.50;;;;;;;3.88;100.00;97978.52;3764239;78;44422;-25
2020/12/14 05:23:30;;;;;;;10.27;6.43;;;;;;;3.90;100.00;97981.91;3763587;77;43380;-26
2020/12/14 05:28:37;;;;;;;10.40;6.53;;;;;;;3.83;100.00;97991.38;3753252;78;43689;-25
2020/12/14 05:33:42;;;;;;;12.43;7.10;;;;;;;3.90;100.00;97999.23;3750073;78;43709;-25
2020/12/14 05:38:49;;;;;;;10.57;6.40;;;;;;;3.88;100.00;97995.84;3762011;78;44065;-25
2020/12/14 05:43:58;;;;;;;11.60;7.00;;;;;;;3.84;100.00;97997.07;3750403;78;44216;-25
2020/12/14 05:49:08;;;;;;;10.30;6.23;;;;;;;3.87;100.00;97990.16;3767887;78;44180;-26
2020/12/14 05:54:16;;;;;;;8.73;5.83;;;;;;;3.90;100.00;97985.91;3766441;77;44359;-25
2020/12/14 05:59:23;;;;;;;9.87;6.00;;;;;;;3.88;100.00;97987.02;3758546;78;44117;-26
2020/12/14 06:04:30;;;;;;;11.40;6.20;;;;;;;3.84;100.00;97989.08;3779456;78;44078;-25
2020/12/14 06:09:37;;;;;;;9.13;6.07;;;;;;;3.75;100.00;97986.72;3765358;78;44035;-25
2020/12/14 06:14:45;;;;;;;9.77;6.20;;;;;;;3.76;100.00;97994.21;3601625;81;43253;-25
2020/12/14 06:19:51;;;;;;;10.67;6.40;;;;;;;3.74;100.00;97984.16;3751849;78;44145;-25
2020/12/14 06:25:00;;;;;;;10.00;6.20;;;;;;;3.77;100.00;97981.25;3743965;78;43690;-25
2020/12/14 06:30:34;;;;;;;8.33;5.80;;;;;;;3.82;100.00;97979.06;3776467;77;44045;-25
2020/12/14 06:35:49;;;;;;;9.90;6.03;;;;;;;3.85;100.00;97988.10;3757845;78;42984;-25
2020/12/14 06:40:59;;;;;;;9.70;6.10;;;;;;;3.87;100.00;97986.16;3745365;78;44050;-26
2020/12/14 06:46:05;;;;;;;8.30;5.50;;;;;;;3.84;100.00;97971.28;3749287;78;44118;-26
2020/12/14 06:51:14;;;;;;;8.87;5.97;;;;;;;3.89;100.00;97980.22;3744132;78;44039;-25
2020/12/14 06:56:40;;;;;;;9.00;5.40;;;;;;;3.96;100.00;97990.70;3739790;78;44033;-25
2020/12/14 07:01:46;;;;;;;8.17;5.40;;;;;;;4.10;100.00;97980.69;3742728;78;44192;-25
2020/12/14 07:06:52;;;;;;;6.80;4.63;;;;;;;4.12;100.00;97981.41;3739630;77;43376;-26
2020/12/14 07:12:17;;;;;;;8.43;5.43;;;;;;;4.19;100.00;97976.40;3768209;78;44034;-25
2020/12/14 07:17:24;;;;;;;8.60;5.47;;;;;;;4.21;100.00;97972.62;3742257;78;43693;-26
2020/12/14 07:22:35;;;;;;;7.20;5.07;;;;;;;4.17;100.00;97983.20;3653926;80;44417;-26
2020/12/14 07:27:41;;;;;;;6.80;4.63;;;;;;;4.20;100.00;97978.92;3732869;78;43097;-26
2020/12/14 07:32:47;;;;;;;7.97;5.07;;;;;;;4.26;100.00;97978.88;3771473;78;44070;-26
2020/12/14 07:37:54;;;;;;;7.10;5.43;;;;;;;4.32;100.00;97989.87;3762700;77;44003;-26
2020/12/14 07:42:59;;;;;;;7.67;5.10;;;;;;;4.32;100.00;97997.03;3764523;78;43465;-25
2020/12/14 07:48:05;;;;;;;7.27;4.90;;;;;;;4.37;100.00;97993.47;3757503;78;44079;-26
2020/12/14 07:53:11;;;;;;;6.00;4.33;;;;;;;4.43;100.00;98002.77;3745453;78;43737;-26
2020/12/14 07:58:18;;;;;;;5.93;4.23;;;;;;;4.41;100.00;98000.74;3734985;78;44087;-26
2020/12/14 08:03:24;;;;;;;7.67;4.50;;;;;;;4.50;100.00;98005.27;3764069;78;43317;-25
2020/12/14 08:08:32;;;;;;;6.07;4.40;;;;;;;4.54;100.00;98003.17;3757973;78;43680;-26
2020/12/14 08:13:39;;;;;;;5.37;4.00;;;;;;;4.60;100.00;98011.49;3626466;80;44186;-26
2020/12/14 08:18:46;;;;;;;6.70;3.90;;;;;;;4.57;100.00;98015.75;3759783;78;44157;-26
2020/12/14 08:23:54;;;;;;;5.40;4.17;;;;;;;4.48;100.00;98008.55;3745212;78;44038;-26
2020/12/14 08:29:01;;;;;;;6.40;4.00;;;;;;;4.61;100.00;98018.52;3749676;78;43693;-26
2020/12/14 08:34:06;;;;;;;6.10;4.33;;;;;;;4.65;100.00;98022.23;3743581;78;44413;-26
2020/12/14 08:39:15;;;;;;;6.07;3.97;;;;;;;4.62;100.00;98017.55;3755772;78;44061;-26
2020/12/14 08:44:21;;;;;;;5.03;3.87;;;;;;;4.73;100.00;98026.44;3749558;78;43454;-26
2020/12/14 08:49:27;;;;;;;6.57;4.60;;;;;;;4.77;100.00;98034.50;3784751;77;44258;-27
2020/12/14 08:54:34;;;;;;;5.03;3.87;;;;;;;4.82;100.00;98028.30;3753714;78;43366;-26
2020/12/14 08:59:41;;;;;;;6.50;4.30;;;;;;;4.94;100.00;98036.56;3769651;78;44094;-25
2020/12/14 09:04:46;;;;;;;5.27;4.03;;;;;;;5.02;100.00;98048.38;3759653;78;44180;-25
2020/12/14 09:09:54;;;;;;;6.60;4.47;;;;;;;5.06;100.00;98043.96;3755345;78;43389;-25
2020/12/14 09:15:05;;;;;;;6.33;4.43;;;;;;;5.09;100.00;98044.20;3760465;78;43270;-26
2020/12/14 09:20:11;;;;;;;5.47;4.13;;;;;;;5.12;100.00;98047.08;3768373;77;43243;-25
2020/12/14 09:25:17;;;;;;;6.27;4.20;;;;;;;5.18;100.00;98047.38;3776959;78;43995;-25
2020/12/14 09:30:22;;;;;;;7.37;5.20;;;;;;;5.27;100.00;98044.39;3679108;80;44083;-26
2020/12/14 09:35:29;;;;;;;6.00;4.23;;;;;;;5.33;100.00;98041.66;3786108;78;43265;-26
2020/12/14 09:40:35;;;;;;;6.00;4.40;;;;;;;5.51;100.00;98048.52;3761046;78;44034;-25
2020/12/14 09:45:41;;;;;;;6.23;4.63;;;;;;;5.69;100.00;98058.86;3787359;78;43713;-26
2020/12/14 09:50:47;;;;;;;5.97;4.30;;;;;;;5.75;100.00;98041.42;3760165;78;43356;-25
2020/12/14 09:55:53;;;;;;;5.50;4.20;;;;;;;5.85;100.00;98044.11;3776229;77;43296;-26
2020/12/14 10:00:59;;;;;;;5.13;4.30;;;;;;;6.01;100.00;98045.73;3780697;78;43361;-26
2020/12/14 10:06:05;;;;;;;7.07;4.70;;;;;;;6.09;100.00;98051.72;3762481;78;44091;-26
2020/12/14 10:11:11;;;;;;;6.63;4.90;;;;;;;6.23;100.00;98037.56;3762761;78;43451;-27
2020/12/14 10:16:18;;;;;;;7.23;5.53;;;;;;;6.49;100.00;98043.13;3773766;78;43486;-26
2020/12/14 10:21:25;;;;;;;6.77;4.93;;;;;;;6.65;100.00;98041.69;3752790;78;43488;-26
2020/12/14 10:26:33;;;;;;;9.97;5.10;;;;;;;6.71;100.00;98039.27;3763437;78;43677;-26
2020/12/14 10:31:43;;;;;;;9.07;5.37;;;;;;;6.84;100.00;98030.91;3645950;80;42941;-26
2020/12/14 10:36:50;;;;;;;7.50;4.77;;;;;;;6.79;100.00;98029.17;3778611;78;42695;-26
2020/12/14 10:41:56;;;;;;;7.17;5.10;;;;;;;6.74;100.00;98036.31;3765811;78;43676;-26
2020/12/14 10:47:05;;;;;;;8.43;5.93;;;;;;;6.57;100.00;98022.34;3764140;78;43696;-26
2020/12/14 10:52:11;;;;;;;7.53;5.30;;;;;;;6.59;100.00;98021.70;3778589;78;43714;-26
2020/12/14 10:57:18;;;;;;;6.13;4.30;;;;;;;6.62;100.00;98022.76;3764663;77;43381;-25
2020/12/14 11:02:24;;;;;;;7.53;5.43;;;;;;;6.52;100.00;98022.78;3774199;77;44172;-26
2020/12/14 11:07:30;;;;;;;6.20;4.60;;;;;;;6.74;100.00;98020.25;3780646;78;44002;-26
2020/12/14 11:12:37;;;;;;;6.50;5.07;;;;;;;6.82;100.00;98018.66;3772158;78;44459;-25
2020/12/14 11:17:43;;;;;;;5.40;4.63;;;;;;;6.85;100.00;98018.38;3741525;78;43330;-26
2020/12/14 11:22:51;;;;;;;5.73;4.20;;;;;;;6.98;100.00;98013.52;3734307;78;43428;-26
2020/12/14 11:27:57;;;;;;;6.03;4.47;;;;;;;7.00;100.00;98016.88;3770986;78;44036;-26
2020/12/14 11:33:03;;;;;;;6.30;4.40;;;;;;;7.05;100.00;98011.92;3741200;78;43697;-27
2020/12/14 11:38:09;;;;;;;6.60;4.30;;;;;;;6.92;100.00;98004.25;3771059;77;43681;-26
2020/12/14 11:43:16;;;;;;;5.30;4.50;;;;;;;6.93;100.00;97998.38;3752783;78;44836;-27
2020/12/14 11:48:23;;;;;;;5.67;4.33;;;;;;;7.04;100.00;97991.48;3770622;78;44625;-26
2020/12/14 11:53:29;;;;;;;4.77;3.83;;;;;;;7.16;100.00;97988.60;3748917;78;44145;-26
2020/12/14 11:58:37;;;;;;;5.73;4.10;;;;;;;7.14;100.00;97982.55;3745123;78;44384;-27
2020/12/14 12:03:43;;;;;;;5.50;4.00;;;;;;;7.22;100.00;97982.66;3756796;78;44412;-26
2020/12/14 12:08:49;;;;;;;6.43;4.43;;;;;;;7.22;100.00;97974.63;3773982;78;43435;-26
2020/12/14 12:13:55;;;;;;;6.27;4.30;;;;;;;7.31;100.00;97980.89;3772484;77;44045;-26
2020/12/14 12:19:01;;;;;;;5.40;4.23;;;;;;;7.36;100.00;97982.12;3789203;78;43730;-26
2020/12/14 12:24:08;;;;;;;5.10;4.13;;;;;;;7.54;100.00;97978.62;3774736;78;44070;-26
2020/12/14 12:29:15;;;;;;;5.23;3.93;;;;;;;7.50;100.00;97978.09;3777829;78;43467;-26
2020/12/14 12:34:21;;;;;;;6.40;4.60;;;;;;;7.49;100.00;97986.27;3767944;78;44053;-26
2020/12/14 12:39:28;;;;;;;4.93;3.80;;;;;;;7.61;100.00;97986.89;3771750;78;44026;-26
2020/12/14 12:44:35;;;;;;;5.13;3.77;;;;;;;7.51;100.00;97989.64;3770196;78;44018;-26
2020/12/14 12:49:42;;;;;;;6.03;3.67;;;;;;;7.75;100.00;97975.64;3658859;80;44035;-26
2020/12/14 12:54:48;;;;;;;5.23;3.80;;;;;;;7.84;100.00;97969.34;3765101;78;44224;-26
2020/12/14 12:59:55;;;;;;;5.13;3.60;;;;;;;7.97;100.00;97964.07;3779771;78;43496;-26
2020/12/14 13:05:03;;;;;;;4.80;3.80;;;;;;;8.21;100.00;97973.30;3755536;78;44209;-27
2020/12/14 13:10:09;;;;;;;4.70;3.60;;;;;;;8.41;100.00;97967.22;3776051;78;44038;-26
2020/12/14 13:15:16;;;;;;;4.80;3.50;;;;;;;8.20;100.00;97975.13;3763249;78;44022;-27
2020/12/14 13:20:23;;;;;;;5.13;3.77;;;;;;;8.25;100.00;97975.50;3729713;79;44010;-26
2020/12/14 13:25:29;;;;;;;6.97;4.23;;;;;;;8.40;100.00;97972.25;3706810;79;44030;-27
2020/12/14 13:30:35;;;;;;;8.37;5.50;;;;;;;8.26;100.00;97958.89;3737849;79;43190;-27
2020/12/14 13:35:42;;;;;;;5.50;4.20;;;;;;;8.31;100.00;97952.05;3718172;79;43461;-27
2020/12/14 13:40:48;;;;;;;4.80;3.80;;;;;;;8.56;100.00;97954.91;3731562;79;43756;-27
2020/12/14 13:45:54;;;;;;;5.70;4.10;;;;;;;8.53;100.00;97955.22;3652682;80;44463;-27
2020/12/14 13:51:01;;;;;;;4.53;3.50;;;;;;;8.49;100.00;97953.88;3646689;80;44113;-26
2020/12/14 13:56:07;;;;;;;5.03;3.53;;;;;;;8.51;100.00;97953.22;3647867;80;44072;-27
2020/12/14 14:01:14;;;;;;;7.10;4.70;;;;;;;8.36;100.00;97959.63;3580966;82;43641;-26
2020/12/14 14:06:21;;;;;;;5.77;4.30;;;;;;;8.06;100.00;97958.25;3708258;79;43956;-26
2020/12/14 14:11:27;;;;;;;6.13;4.93;;;;;;;7.81;100.00;97966.13;3629786;81;43679;-26
2020/12/14 14:16:34;;;;;;;6.17;4.53;;;;;;;7.65;100.00;97974.37;3660332;80;43690;-26
2020/12/14 14:21:41;;;;;;;5.90;4.20;;;;;;;7.62;100.00;97980.03;3698421;80;43688;-26
2020/12/14 14:26:50;;;;;;;5.90;4.17;;;;;;;7.34;100.00;97979.25;3738460;78;43995;-26
2020/12/14 14:31:57;;;;;;;6.10;4.30;;;;;;;7.17;100.00;97979.09;3743900;77;44163;-26
2020/12/14 14:37:07;;;;;;;6.20;4.37;;;;;;;7.06;100.00;97983.29;3758197;78;43494;-26
2020/12/14 14:42:15;;;;;;;5.40;3.80;;;;;;;6.87;100.00;97977.06;3745103;78;43478;-26
2020/12/14 14:47:21;;;;;;;8.23;5.00;;;;;;;6.77;100.00;97979.77;3749594;78;44540;-27
2020/12/14 14:52:27;;;;;;;8.07;4.60;;;;;;;6.64;100.00;97976.62;3771560;78;43420;-26
2020/12/14 14:57:33;;;;;;;6.87;5.00;;;;;;;6.48;100.00;97974.06;3676053;80;43502;-26
2020/12/14 15:02:40;;;;;;;7.13;4.40;;;;;;;6.32;100.00;97978.69;3758361;77;44871;-26
2020/12/14 15:07:47;;;;;;;6.60;4.43;;;;;;;6.25;100.00;97980.24;3758540;78;44057;-26
2020/12/14 15:12:54;;;;;;;8.60;4.30;;;;;;;6.08;100.00;97977.81;3754205;78;43920;-26
2020/12/14 15:18:00;;;;;;;6.00;4.33;;;;;;;6.00;100.00;97971.02;3758398;78;43722;-27
2020/12/14 15:23:06;;;;;;;7.27;4.90;;;;;;;5.90;100.00;97972.83;3757588;78;44081;-28
2020/12/14 15:28:14;;;;;;;9.30;5.43;;;;;;;5.76;100.00;97964.77;3759367;78;43675;-27
2020/12/14 15:33:21;;;;;;;7.47;5.10;;;;;;;5.69;100.00;97973.84;3736921;77;43121;-27
2020/12/14 15:38:30;;;;;;;8.43;5.47;;;;;;;5.60;100.00;97979.53;3751108;78;43734;-27
2020/12/14 15:43:36;;;;;;;9.27;5.20;;;;;;;5.50;100.00;97970.17;3765529;77;43269;-27
2020/12/14 15:48:42;;;;;;;7.60;5.27;;;;;;;5.43;100.00;97963.71;3755289;78;43701;-28
2020/12/14 15:53:49;;;;;;;7.57;5.10;;;;;;;5.40;100.00;97967.52;3774239;78;43448;-27
2020/12/14 15:58:55;;;;;;;6.97;4.97;;;;;;;5.32;100.00;97969.19;3772238;78;43669;-27
2020/12/14 16:04:01;;;;;;;8.20;5.57;;;;;;;5.20;100.00;97980.00;3730627;78;42778;-27
2020/12/14 16:09:08;;;;;;;9.23;5.80;;;;;;;5.13;100.00;97986.85;3766171;78;44018;-27
2020/12/14 16:14:15;;;;;;;9.40;5.90;;;;;;;5.08;100.00;97983.27;3742265;77;44005;-27
2020/12/14 16:19:21;;;;;;;10.00;6.10;;;;;;;5.08;100.00;97982.43;3749195;78;43384;-27
2020/12/14 16:24:27;;;;;;;7.87;5.40;;;;;;;5.06;100.00;97980.38;3744625;78;43377;-27
2020/12/14 16:29:34;;;;;;;9.27;5.10;;;;;;;5.01;100.00;97978.60;3664532;80;42878;-27
2020/12/14 16:34:40;;;;;;;8.30;5.43;;;;;;;4.92;100.00;97977.12;3731592;78;43806;-27
2020/12/14 16:39:47;;;;;;;7.97;5.50;;;;;;;4.84;100.00;97976.10;3752599;78;43859;-27
2020/12/14 16:44:55;;;;;;;8.73;5.80;;;;;;;4.80;100.00;97979.53;3734934;77;43974;-26
2020/12/14 16:50:01;;;;;;;9.77;6.23;;;;;;;4.79;100.00;97973.84;3647788;80;43367;-27
2020/12/14 16:55:06;;;;;;;8.00;5.40;;;;;;;4.75;100.00;97962.59;3752818;78;43352;-27
2020/12/14 17:00:13;;;;;;;9.57;5.63;;;;;;;4.70;100.00;97965.32;3745033;78;44665;-27
2020/12/14 17:05:19;;;;;;;7.97;5.37;;;;;;;4.73;100.00;97959.22;3737834;78;43695;-27
2020/12/14 17:10:28;;;;;;;8.07;5.20;;;;;;;4.68;100.00;97958.80;3775239;78;43450;-27
2020/12/14 17:15:33;;;;;;;9.73;5.87;;;;;;;4.65;100.00;97960.39;3768144;78;43726;-27
2020/12/14 17:20:39;;;;;;;8.87;5.83;;;;;;;4.56;100.00;97958.54;3766628;77;43602;-27
2020/12/14 17:25:45;;;;;;;8.73;5.37;;;;;;;4.55;100.00;97957.68;3778502;78;44047;-27
2020/12/14 17:30:51;;;;;;;7.90;5.30;;;;;;;4.56;100.00;97953.20;3753566;78;44046;-27
2020/12/14 17:35:57;;;;;;;9.03;5.50;;;;;;;4.57;100.00;97961.56;3749213;78;44719;-27
2020/12/14 17:41:03;;;;;;;9.27;6.17;;;;;;;4.55;100.00;97965.69;3743960;78;43698;-27
2020/12/14 17:46:09;;;;;;;9.40;6.37;;;;;;;4.55;100.00;97966.19;3775517;78;43309;-27
2020/12/14 17:51:17;;;;;;;10.07;6.90;;;;;;;4.54;100.00;97984.00;3750198;77;43567;-27
2020/12/14 17:56:23;;;;;;;10.00;6.03;;;;;;;4.49;100.00;97992.91;3745750;78;43725;-26
2020/12/14 18:01:29;;;;;;;10.03;6.10;;;;;;;4.48;100.00;97988.55;3763402;78;44191;-26
2020/12/14 18:06:35;;;;;;;11.03;5.87;;;;;;;4.46;100.00;97993.17;3756824;78;43085;-27
2020/12/14 18:11:40;;;;;;;9.70;6.20;;;;;;;4.39;100.00;97993.36;3761092;78;44057;-26
2020/12/14 18:16:47;;;;;;;9.70;6.70;;;;;;;4.36;100.00;97998.44;3759135;78;43722;-26
2020/12/14 18:21:53;;;;;;;9.43;5.60;;;;;;;4.34;100.00;97983.56;3560556;80;43975;-26
2020/12/14 18:27:04;;;;;;;11.83;6.83;;;;;;;4.31;100.00;97982.84;3691149;80;44612;-26
2020/12/14 21:27:19;;;;;;;7.00;4.87;;;;;;;4.36;100.00;98001.11;3805873;77;44913;-21
2020/12/14 21:32:28;;;;;;;6.40;4.70;;;;;;;4.28;100.00;97989.80;3812216;77;44058;-20
2020/12/14 21:37:34;;;;;;;6.40;4.30;;;;;;;4.29;100.00;97984.79;3781802;78;43669;-21
2020/12/14 21:42:40;;;;;;;7.30;4.90;;;;;;;4.27;100.00;97982.77;3800250;77;44061;-21
2020/12/14 21:47:46;;;;;;;6.47;4.40;;;;;;;4.25;100.00;97990.52;3803376;77;43953;-21
2020/12/14 21:52:52;;;;;;;6.27;4.50;;;;;;;4.24;100.00;97984.36;3813663;76;44058;-21
2020/12/14 21:57:58;;;;;;;6.17;4.30;;;;;;;4.19;100.00;98000.39;3884589;75;44503;-21
2020/12/14 22:03:04;;;;;;;6.33;4.40;;;;;;;4.13;100.00;97997.27;3901470;75;44447;-21
2020/12/14 22:08:10;;;;;;;6.80;4.63;;;;;;;4.06;100.00;98001.94;3885664;75;43115;-20
2020/12/14 22:13:18;;;;;;;6.10;4.30;;;;;;;4.00;100.00;98005.47;3906850;75;43689;-21
2020/12/14 22:18:24;;;;;;;7.40;4.90;;;;;;;3.93;100.00;98004.78;3868959;75;44126;-21
2020/12/14 22:23:30;;;;;;;7.13;4.67;;;;;;;3.90;100.00;98003.23;3845619;75;43725;-21
2020/12/14 22:28:36;;;;;;;7.47;4.67;;;;;;;3.88;100.00;98002.51;3865979;76;43390;-21
2020/12/14 22:33:43;;;;;;;6.63;4.90;;;;;;;3.92;100.00;98002.63;3855597;76;43686;-21
2020/12/14 22:38:48;;;;;;;7.13;4.80;;;;;;;3.89;100.00;98008.20;3853209;76;43698;-21
2020/12/14 22:43:54;;;;;;;7.17;4.90;;;;;;;3.93;100.00;98004.31;3868380;76;44106;-21
2020/12/14 22:49:02;;;;;;;7.07;4.50;;;;;;;4.03;100.00;97995.03;3862194;76;44571;-21
2020/12/14 22:54:08;;;;;;;8.23;5.30;;;;;;;4.13;100.00;97984.44;3834337;75;43245;-21
2020/12/14 22:59:14;;;;;;;6.87;4.60;;;;;;;4.13;100.00;97989.27;3841580;76;43726;-21
2020/12/14 23:04:27;;;;;;;6.93;4.77;;;;;;;4.13;100.00;97989.77;3838128;76;44210;-21
2020/12/14 23:09:32;;;;;;;6.43;4.47;;;;;;;4.10;100.00;97971.36;3861635;76;43487;-21
2020/12/14 23:14:38;;;;;;;6.37;4.70;;;;;;;4.13;100.00;97973.77;3840475;76;43064;-21
2020/12/14 23:19:44;;;;;;;6.97;4.63;;;;;;;4.12;100.00;97964.08;3741986;78;43632;-21
2020/12/14 23:24:50;;;;;;;6.00;4.50;;;;;;;4.13;100.00;97951.95;3688776;79;43192;-21
2020/12/14 23:29:56;;;;;;;5.80;4.30;;;;;;;4.18;100.00;97958.70;3687002;79;43435;-21
2020/12/14 23:35:02;;;;;;;7.10;4.83;;;;;;;4.13;100.00;97956.44;3719748;79;44174;-21
2020/12/14 23:40:07;;;;;;;6.43;4.30;;;;;;;4.12;100.00;97952.91;3708820;79;44745;-21
2020/12/14 23:45:13;;;;;;;7.80;4.30;;;;;;;4.12;100.00;97946.75;3691969;79;43672;-21
2020/12/14 23:50:19;;;;;;;7.07;4.60;;;;;;;4.11;100.00;97957.06;3725133;79;44701;-21
2020/12/14 23:55:24;;;;;;;7.93;4.40;;;;;;;4.11;100.00;97947.73;3703514;79;43708;-21
